Time;durP1;ratioP1;P1;durP2;ratioP2;P2;SDS_P1;SDS_P2;PMS_P1;PMS_P2;Temp;Humidity;BMP_temperature;BMP_pressure;BME280_temperature;BME280_humidity;BME280_pressure;Samples;Min_cycle;Max_cycle;Signal;HPM_P1;HPM_P2
2022/07/10 00:00:04;;;;;;;;;;;18.80;99.90;;;;;;5072236;28;19912;-75
2022/07/10 00:02:30;;;;;;;;;;;18.80;99.90;;;;;;5071704;28;19904;-75
2022/07/10 00:04:55;;;;;;;;;;;18.80;99.90;;;;;;5072029;28;20276;-75
2022/07/10 00:07:21;;;;;;;;;;;18.70;99.90;;;;;;5074658;28;19905;-74
2022/07/10 00:09:46;;;;;;;;;;;18.70;99.90;;;;;;5075278;28;19912;-75
2022/07/10 00:12:12;;;;;;;;;;;18.70;99.90;;;;;;5075985;28;19908;-75
2022/07/10 00:14:37;;;;;;;;;;;18.60;99.90;;;;;;5075263;28;19904;-75
2022/07/10 00:17:03;;;;;;;;;;;18.60;99.90;;;;;;5075814;28;19919;-75
2022/07/10 00:19:29;;;;;;;;;;;18.60;99.90;;;;;;5075132;28;19908;-75
2022/07/10 00:21:54;;;;;;;;;;;18.50;99.90;;;;;;5075715;28;20347;-75
2022/07/10 00:24:20;;;;;;;;;;;18.40;99.90;;;;;;5075997;28;19914;-75
2022/07/10 00:26:47;;;;;;;;;;;18.40;99.90;;;;;;5075062;28;19950;-75
2022/07/10 00:29:13;;;;;;;;;;;18.30;99.90;;;;;;5075125;28;20336;-75
2022/07/10 00:31:38;;;;;;;;;;;18.20;99.90;;;;;;5075031;28;19991;-75
2022/07/10 00:34:04;;;;;;;;;;;18.10;99.90;;;;;;5075573;28;19985;-75
2022/07/10 00:36:30;;;;;;;;;;;18.10;99.90;;;;;;5074846;28;20274;-75
2022/07/10 00:38:56;;;;;;;;;;;18.10;99.90;;;;;;5075242;28;19916;-74
2022/07/10 00:41:21;;;;;;;;;;;18.00;99.90;;;;;;5075399;28;20003;-75
2022/07/10 00:43:57;;;;;;;;;;;18.00;99.90;;;;;;5074518;28;20436;-74
2022/07/10 00:46:23;;;;;;;;;;;18.00;99.90;;;;;;5074899;28;20421;-74
2022/07/10 00:48:49;;;;;;;;;;;17.90;99.90;;;;;;5074308;28;20355;-75
2022/07/10 00:51:16;;;;;;;;;;;17.90;99.90;;;;;;5057045;28;19910;-74
2022/07/10 00:53:42;;;;;;;;;;;17.80;99.90;;;;;;5056539;28;19909;-75
2022/07/10 00:56:08;;;;;;;;;;;17.70;99.90;;;;;;5074948;28;19904;-74
2022/07/10 00:58:34;;;;;;;;;;;17.60;99.90;;;;;;5074207;28;20367;-74
2022/07/10 01:01:01;;;;;;;;;;;17.60;99.90;;;;;;5074671;28;19912;-74
2022/07/10 01:03:27;;;;;;;;;;;17.50;99.90;;;;;;5074573;28;19904;-74
2022/07/10 01:05:52;;;;;;;;;;;17.40;99.90;;;;;;5074854;28;19983;-74
2022/07/10 01:08:18;;;;;;;;;;;17.40;99.90;;;;;;5074679;28;19911;-74
2022/07/10 01:10:44;;;;;;;;;;;17.40;99.90;;;;;;5074210;28;19987;-74
2022/07/10 01:13:10;;;;;;;;;;;17.40;99.90;;;;;;5074741;28;19904;-74
2022/07/10 01:15:36;;;;;;;;;;;17.30;99.90;;;;;;5074071;28;19904;-74
2022/07/10 01:18:02;;;;;;;;;;;17.20;99.90;;;;;;5074734;28;20391;-74
2022/07/10 01:20:32;;;;;;;;;;;17.20;99.90;;;;;;5074080;28;19917;-74
2022/07/10 01:22:57;;;;;;;;;;;17.20;99.90;;;;;;5074276;28;20343;-75
2022/07/10 01:25:23;;;;;;;;;;;17.10;99.90;;;;;;5074453;28;20050;-74
2022/07/10 01:27:48;;;;;;;;;;;17.10;99.90;;;;;;5073561;28;19904;-74
2022/07/10 01:30:14;;;;;;;;;;;17.10;99.90;;;;;;5074417;28;19911;-75
2022/07/10 01:32:40;;;;;;;;;;;17.00;99.90;;;;;;5073439;28;20260;-74
2022/07/10 01:35:06;;;;;;;;;;;17.00;99.90;;;;;;5074066;28;19904;-75
2022/07/10 01:37:32;;;;;;;;;;;17.00;99.90;;;;;;5073535;28;19908;-75
2022/07/10 01:39:57;;;;;;;;;;;16.90;99.90;;;;;;5074157;28;19914;-74
2022/07/10 01:42:23;;;;;;;;;;;16.90;99.90;;;;;;5073925;28;19908;-75
2022/07/10 01:44:48;;;;;;;;;;;16.90;99.90;;;;;;5073618;28;20508;-74
2022/07/10 01:47:14;;;;;;;;;;;16.90;99.90;;;;;;5074278;28;19908;-74
2022/07/10 01:49:39;;;;;;;;;;;16.70;99.90;;;;;;5073043;28;19952;-74
2022/07/10 01:52:05;;;;;;;;;;;16.70;99.90;;;;;;5073549;28;19932;-75
2022/07/10 01:54:31;;;;;;;;;;;16.70;99.90;;;;;;5072720;28;19904;-75
2022/07/10 01:56:56;;;;;;;;;;;16.60;99.90;;;;;;5073936;28;19908;-75
2022/07/10 01:59:22;;;;;;;;;;;16.50;99.90;;;;;;5073858;28;19937;-75
2022/07/10 02:01:47;;;;;;;;;;;16.50;99.90;;;;;;5072951;28;20274;-75
2022/07/10 02:06:57;;;;;;;;;;;16.40;99.90;;;;;;5073462;28;19911;-74
2022/07/10 02:09:22;;;;;;;;;;;16.20;99.90;;;;;;5073348;28;19909;-74
2022/07/10 02:11:48;;;;;;;;;;;16.20;99.90;;;;;;5072961;28;19911;-74
2022/07/10 02:14:13;;;;;;;;;;;16.20;99.90;;;;;;5073644;28;19904;-74
2022/07/10 02:16:39;;;;;;;;;;;16.20;99.90;;;;;;5072842;28;19915;-74
2022/07/10 02:19:04;;;;;;;;;;;16.20;99.90;;;;;;5073426;28;20247;-74
2022/07/10 02:21:30;;;;;;;;;;;16.20;99.90;;;;;;5073204;28;19904;-74
2022/07/10 02:23:56;;;;;;;;;;;16.20;99.90;;;;;;5073112;28;19904;-74
2022/07/10 02:26:21;;;;;;;;;;;16.20;99.90;;;;;;5072965;28;19963;-74
2022/07/10 02:28:47;;;;;;;;;;;16.20;99.90;;;;;;5071901;28;20354;-74
2022/07/10 02:31:12;;;;;;;;;;;16.20;99.90;;;;;;5073341;28;19931;-74
2022/07/10 02:33:38;;;;;;;;;;;16.20;99.90;;;;;;5072649;28;20359;-74
2022/07/10 02:36:04;;;;;;;;;;;16.20;99.90;;;;;;5073169;28;19904;-74
2022/07/10 02:38:30;;;;;;;;;;;16.20;99.90;;;;;;5072877;28;20359;-74
2022/07/10 02:40:55;;;;;;;;;;;16.30;99.90;;;;;;5054594;28;19912;-74
2022/07/10 02:43:21;;;;;;;;;;;16.30;99.90;;;;;;5072810;28;19971;-74
2022/07/10 02:45:46;;;;;;;;;;;16.30;99.90;;;;;;5072609;28;19911;-74
2022/07/10 02:48:12;;;;;;;;;;;16.30;99.90;;;;;;5072818;28;20272;-74
2022/07/10 02:50:37;;;;;;;;;;;16.40;99.90;;;;;;5072155;28;19911;-74
2022/07/10 02:53:03;;;;;;;;;;;16.50;99.90;;;;;;5073022;28;19912;-73
2022/07/10 02:55:31;;;;;;;;;;;16.50;99.90;;;;;;5073188;28;19947;-75
2022/07/10 02:57:58;;;;;;;;;;;16.60;99.90;;;;;;5072251;28;19938;-74
2022/07/10 03:00:23;;;;;;;;;;;16.60;99.90;;;;;;5072810;28;19967;-74
2022/07/10 03:02:49;;;;;;;;;;;16.60;99.90;;;;;;5072146;28;19904;-74
2022/07/10 03:05:14;;;;;;;;;;;16.60;99.90;;;;;;5072748;28;19904;-74
2022/07/10 03:07:40;;;;;;;;;;;16.60;99.90;;;;;;5071875;28;19940;-74
2022/07/10 03:10:06;;;;;;;;;;;16.60;99.90;;;;;;5072597;28;19912;-74
2022/07/10 03:12:31;;;;;;;;;;;16.60;99.90;;;;;;5072961;28;19904;-73
2022/07/10 03:14:59;;;;;;;;;;;16.60;99.90;;;;;;5072103;28;19915;-74
2022/07/10 03:17:24;;;;;;;;;;;16.60;99.90;;;;;;5072655;28;20305;-74
2022/07/10 03:19:50;;;;;;;;;;;16.60;99.90;;;;;;5072057;28;19908;-74
2022/07/10 03:22:16;;;;;;;;;;;16.60;99.90;;;;;;5072519;28;19904;-74
2022/07/10 03:24:43;;;;;;;;;;;16.70;99.90;;;;;;5072068;28;19904;-74
2022/07/10 03:27:08;;;;;;;;;;;16.70;99.90;;;;;;5072553;28;19904;-74
2022/07/10 03:29:34;;;;;;;;;;;16.70;99.90;;;;;;5072009;28;19974;-74
2022/07/10 03:32:00;;;;;;;;;;;16.70;99.90;;;;;;5072127;28;20003;-74
2022/07/10 03:34:25;;;;;;;;;;;16.70;99.90;;;;;;5072891;28;20359;-74
2022/07/10 03:36:51;;;;;;;;;;;16.70;99.90;;;;;;5071904;28;20023;-74
2022/07/10 03:39:17;;;;;;;;;;;16.70;99.90;;;;;;5072416;28;20427;-74
2022/07/10 03:41:42;;;;;;;;;;;16.70;99.90;;;;;;5055620;28;20014;-74
2022/07/10 03:44:08;;;;;;;;;;;16.80;99.90;;;;;;5076281;28;19916;-74
2022/07/10 03:46:33;;;;;;;;;;;16.80;99.90;;;;;;5076462;28;19905;-74
2022/07/10 03:48:59;;;;;;;;;;;16.80;99.90;;;;;;5075827;28;19912;-74
2022/07/10 03:51:25;;;;;;;;;;;16.90;99.90;;;;;;5076380;28;19975;-74
2022/07/10 03:53:50;;;;;;;;;;;16.90;99.90;;;;;;5075745;28;19991;-74
2022/07/10 03:59:00;;;;;;;;;;;16.80;99.90;;;;;;5075497;28;19973;-74
2022/07/10 04:01:25;;;;;;;;;;;16.80;99.90;;;;;;5076219;28;20350;-75
2022/07/10 04:03:51;;;;;;;;;;;16.80;99.90;;;;;;5075371;28;19927;-75
2022/07/10 04:06:16;;;;;;;;;;;16.90;99.90;;;;;;5076023;28;19910;-75
2022/07/10 04:08:42;;;;;;;;;;;16.90;99.90;;;;;;5075118;28;19904;-74
2022/07/10 04:11:07;;;;;;;;;;;16.90;99.90;;;;;;5076044;28;19912;-74
2022/07/10 04:13:33;;;;;;;;;;;16.80;99.90;;;;;;5075826;28;20338;-74
2022/07/10 04:15:58;;;;;;;;;;;16.90;99.90;;;;;;5075175;28;20141;-74
2022/07/10 04:18:24;;;;;;;;;;;16.80;99.90;;;;;;5075698;28;19913;-74
2022/07/10 04:20:49;;;;;;;;;;;16.90;99.90;;;;;;5074936;28;19904;-74
2022/07/10 04:23:15;;;;;;;;;;;16.90;99.90;;;;;;5075750;28;20436;-74
2022/07/10 04:25:40;;;;;;;;;;;17.00;99.90;;;;;;5075139;28;19904;-74
2022/07/10 04:28:06;;;;;;;;;;;17.00;99.90;;;;;;5075790;28;19958;-74
2022/07/10 04:30:32;;;;;;;;;;;17.00;99.90;;;;;;5075616;28;19904;-74
2022/07/10 04:32:57;;;;;;;;;;;17.00;99.90;;;;;;5074556;28;19904;-74
2022/07/10 04:35:23;;;;;;;;;;;17.00;99.90;;;;;;5057283;28;19915;-74
2022/07/10 04:37:48;;;;;;;;;;;17.00;99.90;;;;;;5074800;28;19912;-74
2022/07/10 04:40:14;;;;;;;;;;;17.00;99.90;;;;;;5075298;28;19908;-74
2022/07/10 04:42:40;;;;;;;;;;;17.10;99.90;;;;;;5075380;28;19904;-74
2022/07/10 04:45:05;;;;;;;;;;;17.10;99.90;;;;;;5074786;28;20279;-74
2022/07/10 04:47:31;;;;;;;;;;;17.10;99.90;;;;;;5075005;28;20275;-74
2022/07/10 04:49:56;;;;;;;;;;;17.10;99.90;;;;;;5074610;28;19911;-75
2022/07/10 04:52:22;;;;;;;;;;;17.10;99.90;;;;;;5074533;28;19905;-74
2022/07/10 04:54:47;;;;;;;;;;;17.20;99.90;;;;;;5074525;28;19987;-74
2022/07/10 04:57:13;;;;;;;;;;;17.20;99.90;;;;;;5075254;28;19912;-74
2022/07/10 04:59:38;;;;;;;;;;;17.20;99.90;;;;;;5074661;28;20270;-74
2022/07/10 05:02:04;;;;;;;;;;;17.20;99.90;;;;;;5074757;28;19905;-74
2022/07/10 05:04:30;;;;;;;;;;;17.20;99.90;;;;;;5075001;28;19904;-74
2022/07/10 05:06:55;;;;;;;;;;;17.20;99.90;;;;;;5074374;28;20354;-74
2022/07/10 05:09:21;;;;;;;;;;;17.20;99.90;;;;;;5075136;28;19904;-74
2022/07/10 05:11:47;;;;;;;;;;;17.20;99.90;;;;;;5074086;28;19991;-74
2022/07/10 05:14:12;;;;;;;;;;;17.20;99.90;;;;;;5074828;28;19905;-74
2022/07/10 05:16:38;;;;;;;;;;;17.30;99.90;;;;;;5074368;28;19916;-74
2022/07/10 05:19:03;;;;;;;;;;;17.20;99.90;;;;;;5074062;28;19912;-74
2022/07/10 05:21:29;;;;;;;;;;;17.30;99.90;;;;;;5074603;28;19904;-74
2022/07/10 05:23:55;;;;;;;;;;;17.20;99.90;;;;;;5074299;28;19904;-74
2022/07/10 05:26:20;;;;;;;;;;;17.20;99.90;;;;;;5074225;28;20351;-74
2022/07/10 05:28:46;;;;;;;;;;;17.20;99.90;;;;;;5073516;28;19962;-74
2022/07/10 05:31:11;;;;;;;;;;;17.30;99.90;;;;;;5074742;28;19904;-74
2022/07/10 05:33:40;;;;;;;;;;;17.20;99.90;;;;;;5074254;28;19950;-74
2022/07/10 05:36:06;;;;;;;;;;;17.30;99.90;;;;;;5073482;28;19904;-74
2022/07/10 05:38:32;;;;;;;;;;;17.30;99.90;;;;;;5074123;28;20006;-74
2022/07/10 05:40:57;;;;;;;;;;;17.30;99.90;;;;;;5073654;28;19948;-74
2022/07/10 05:43:23;;;;;;;;;;;17.30;99.90;;;;;;5056249;28;19916;-73
2022/07/10 05:45:48;;;;;;;;;;;17.30;99.90;;;;;;5073762;28;19916;-74
2022/07/10 05:48:14;;;;;;;;;;;17.30;99.90;;;;;;5074054;28;20017;-74
2022/07/10 05:50:39;;;;;;;;;;;17.40;99.90;;;;;;5074106;28;19904;-74
2022/07/10 05:53:05;;;;;;;;;;;17.50;99.90;;;;;;5073485;28;20839;-74
2022/07/10 05:55:30;;;;;;;;;;;17.50;99.90;;;;;;5074018;28;19905;-74
2022/07/10 05:57:56;;;;;;;;;;;17.50;99.90;;;;;;5073070;28;20374;-74
2022/07/10 06:00:22;;;;;;;;;;;17.50;99.90;;;;;;5073612;28;19908;-74
2022/07/10 06:02:48;;;;;;;;;;;17.50;99.90;;;;;;5073188;28;19966;-74
2022/07/10 06:05:13;;;;;;;;;;;17.50;99.90;;;;;;5072856;28;19915;-74
2022/07/10 06:07:39;;;;;;;;;;;17.50;99.90;;;;;;5073644;28;19905;-74
2022/07/10 06:10:05;;;;;;;;;;;17.60;99.90;;;;;;5072794;28;19912;-74
2022/07/10 06:12:31;;;;;;;;;;;17.60;99.90;;;;;;5055346;28;19912;-74
2022/07/10 06:14:56;;;;;;;;;;;17.60;99.90;;;;;;5072746;28;19904;-74
2022/07/10 06:17:22;;;;;;;;;;;17.70;99.90;;;;;;5073464;28;20267;-74
2022/07/10 06:19:47;;;;;;;;;;;17.70;99.90;;;;;;5072672;28;19961;-74
2022/07/10 06:22:31;;;;;;;;;;;17.70;99.90;;;;;;5073599;28;19991;-74
2022/07/10 06:24:57;;;;;;;;;;;17.70;99.90;;;;;;5072940;28;19911;-74
2022/07/10 06:27:23;;;;;;;;;;;17.70;99.90;;;;;;5073302;28;19930;-74
2022/07/10 06:29:48;;;;;;;;;;;17.70;99.90;;;;;;5072714;28;19904;-74
2022/07/10 06:32:14;;;;;;;;;;;17.60;99.90;;;;;;5073308;28;19930;-74
2022/07/10 06:34:40;;;;;;;;;;;17.70;99.90;;;;;;5073143;28;20362;-74
2022/07/10 06:37:05;;;;;;;;;;;17.70;99.90;;;;;;5072404;28;19912;-74
2022/07/10 06:39:37;;;;;;;;;;;17.70;99.90;;;;;;5073076;28;19955;-74
2022/07/10 06:42:03;;;;;;;;;;;17.60;99.90;;;;;;5054579;28;19905;-74
2022/07/10 06:44:29;;;;;;;;;;;17.60;99.90;;;;;;5072944;28;20011;-74
2022/07/10 06:49:39;;;;;;;;;;;17.60;99.90;;;;;;5073125;28;19949;-74
2022/07/10 06:52:05;;;;;;;;;;;17.50;99.90;;;;;;5072321;28;20038;-74
2022/07/10 06:54:31;;;;;;;;;;;17.50;99.90;;;;;;5073345;28;19942;-74
2022/07/10 06:56:57;;;;;;;;;;;17.50;99.90;;;;;;5071832;28;20389;-74
2022/07/10 06:59:22;;;;;;;;;;;17.40;99.90;;;;;;5072831;28;19936;-74
2022/07/10 07:01:48;;;;;;;;;;;17.50;99.90;;;;;;5072741;28;19910;-74
2022/07/10 07:04:14;;;;;;;;;;;17.60;99.90;;;;;;5072316;28;19962;-74
2022/07/10 07:06:39;;;;;;;;;;;17.60;99.90;;;;;;5072687;28;20365;-74
2022/07/10 07:09:05;;;;;;;;;;;17.60;99.90;;;;;;5071874;28;20417;-74
2022/07/10 07:11:31;;;;;;;;;;;17.70;99.90;;;;;;5072737;28;19913;-74
2022/07/10 07:13:56;;;;;;;;;;;17.60;99.90;;;;;;5071728;28;19995;-74
2022/07/10 07:16:37;;;;;;;;;;;17.60;99.90;;;;;;5054685;28;19962;-74
2022/07/10 07:19:04;;;;;;;;;;;17.50;99.90;;;;;;5071843;28;20374;-74
2022/07/10 07:24:14;;;;;;;;;;;17.60;99.90;;;;;;5072368;28;19958;-74
2022/07/10 07:26:40;;;;;;;;;;;17.60;99.90;;;;;;5072329;28;20275;-74
2022/07/10 07:29:05;;;;;;;;;;;17.60;99.90;;;;;;5071487;28;20372;-74
2022/07/10 07:31:31;;;;;;;;;;;17.70;99.90;;;;;;5072345;28;19904;-74
2022/07/10 07:33:57;;;;;;;;;;;17.80;99.90;;;;;;5072013;28;20351;-74
2022/07/10 07:36:23;;;;;;;;;;;17.90;99.90;;;;;;5072380;28;19957;-73
2022/07/10 07:38:48;;;;;;;;;;;18.00;99.90;;;;;;5072365;28;19908;-74
2022/07/10 07:41:15;;;;;;;;;;;18.00;99.90;;;;;;5071889;28;19905;-74
2022/07/10 07:43:40;;;;;;;;;;;18.10;99.90;;;;;;5072048;28;19904;-74
2022/07/10 07:46:06;;;;;;;;;;;18.30;99.90;;;;;;5071679;28;19911;-74
2022/07/10 07:48:32;;;;;;;;;;;18.40;99.90;;;;;;5072055;28;19939;-74
2022/07/10 07:50:58;;;;;;;;;;;18.50;99.90;;;;;;5071475;28;19904;-74
2022/07/10 07:53:23;;;;;;;;;;;18.50;99.90;;;;;;5072143;28;19908;-74
2022/07/10 07:55:49;;;;;;;;;;;18.60;99.90;;;;;;5072439;28;19950;-74
2022/07/10 07:58:14;;;;;;;;;;;18.60;99.90;;;;;;5071692;28;20248;-74
2022/07/10 08:00:40;;;;;;;;;;;18.60;99.90;;;;;;5072360;28;19966;-74
2022/07/10 08:03:08;;;;;;;;;;;18.60;99.90;;;;;;5071721;28;19974;-74
2022/07/10 08:05:33;;;;;;;;;;;18.70;99.90;;;;;;5072226;28;19915;-74
2022/07/10 08:08:04;;;;;;;;;;;18.80;99.90;;;;;;5071467;28;20266;-74
2022/07/10 08:10:30;;;;;;;;;;;19.00;99.90;;;;;;5071669;28;20375;-74
2022/07/10 08:12:56;;;;;;;;;;;19.10;99.90;;;;;;5071263;28;20003;-74
2022/07/10 08:15:22;;;;;;;;;;;19.30;99.90;;;;;;5072228;28;20003;-74
2022/07/10 08:17:57;;;;;;;;;;;19.40;99.90;;;;;;5071988;28;19908;-74
2022/07/10 08:20:24;;;;;;;;;;;19.50;99.90;;;;;;5072333;28;20326;-74
2022/07/10 08:22:51;;;;;;;;;;;19.70;99.90;;;;;;5072065;28;19930;-74
2022/07/10 08:25:17;;;;;;;;;;;19.80;99.90;;;;;;5071114;28;20266;-74
2022/07/10 08:27:42;;;;;;;;;;;19.90;99.90;;;;;;5073445;28;19971;-74
2022/07/10 08:30:08;;;;;;;;;;;20.00;99.90;;;;;;5074485;28;19904;-74
2022/07/10 08:32:35;;;;;;;;;;;20.00;99.90;;;;;;5075733;28;20418;-74
2022/07/10 08:35:00;;;;;;;;;;;20.00;99.90;;;;;;5074995;28;19919;-74
2022/07/10 08:37:26;;;;;;;;;;;20.10;99.90;;;;;;5075129;28;19908;-74
2022/07/10 08:39:52;;;;;;;;;;;20.10;99.90;;;;;;5075469;28;20370;-75
2022/07/10 08:42:18;;;;;;;;;;;20.00;99.90;;;;;;5074573;28;20317;-75
2022/07/10 08:44:43;;;;;;;;;;;20.10;99.90;;;;;;5074985;28;19926;-75
2022/07/10 08:47:11;;;;;;;;;;;20.30;99.90;;;;;;5074416;28;19995;-74
2022/07/10 08:49:37;;;;;;;;;;;20.30;99.90;;;;;;5075044;28;20386;-73
2022/07/10 08:52:08;;;;;;;;;;;20.40;99.90;;;;;;5074963;28;19905;-75
2022/07/10 08:54:34;;;;;;;;;;;20.50;99.90;;;;;;5075129;28;19908;-74
2022/07/10 08:57:01;;;;;;;;;;;20.70;99.90;;;;;;5074361;28;19962;-75
2022/07/10 08:59:27;;;;;;;;;;;20.80;99.90;;;;;;5075015;28;19915;-75
2022/07/10 09:01:56;;;;;;;;;;;20.80;99.90;;;;;;5075393;28;20333;-76
2022/07/10 09:04:23;;;;;;;;;;;20.90;99.90;;;;;;5074538;28;19938;-75
2022/07/10 09:06:49;;;;;;;;;;;20.90;99.90;;;;;;5074847;28;19957;-75
2022/07/10 09:09:14;;;;;;;;;;;21.00;99.90;;;;;;5074203;28;19904;-75
2022/07/10 09:11:42;;;;;;;;;;;21.10;99.90;;;;;;5074934;28;19904;-75
2022/07/10 09:14:08;;;;;;;;;;;21.20;99.90;;;;;;5073939;28;20275;-75
2022/07/10 09:16:34;;;;;;;;;;;21.30;99.90;;;;;;5074697;28;19908;-75
2022/07/10 09:19:16;;;;;;;;;;;21.30;99.90;;;;;;5074120;28;19931;-75
2022/07/10 09:21:42;;;;;;;;;;;21.20;99.90;;;;;;5074214;28;19905;-75
2022/07/10 09:24:08;;;;;;;;;;;21.30;99.90;;;;;;5073817;28;19946;-75
2022/07/10 09:26:37;;;;;;;;;;;21.40;99.90;;;;;;5074006;28;20370;-75
2022/07/10 09:29:10;;;;;;;;;;;21.50;99.90;;;;;;5073681;28;19915;-75
2022/07/10 09:31:48;;;;;;;;;;;21.50;99.90;;;;;;5074343;28;19939;-75
2022/07/10 09:34:13;;;;;;;;;;;21.50;99.90;;;;;;5055901;28;19908;-75
2022/07/10 09:36:39;;;;;;;;;;;21.50;99.90;;;;;;5073971;28;20022;-75
2022/07/10 09:39:05;;;;;;;;;;;21.50;99.90;;;;;;5072514;28;19908;-75
2022/07/10 09:41:31;;;;;;;;;;;21.50;99.90;;;;;;5074271;28;19911;-75
2022/07/10 09:43:57;;;;;;;;;;;21.60;99.90;;;;;;5073951;28;19905;-75
2022/07/10 09:46:24;;;;;;;;;;;21.60;99.90;;;;;;5073693;28;19920;-75
2022/07/10 09:49:02;;;;;;;;;;;21.50;99.90;;;;;;5073961;28;19955;-75
2022/07/10 09:51:32;;;;;;;;;;;21.60;99.90;;;;;;5073776;28;20371;-75
2022/07/10 09:53:59;;;;;;;;;;;21.70;99.90;;;;;;5073804;28;19999;-75
2022/07/10 09:56:26;;;;;;;;;;;21.60;99.90;;;;;;5073545;28;20395;-75
2022/07/10 09:58:54;;;;;;;;;;;21.50;99.90;;;;;;5074045;28;19991;-75
2022/07/10 10:01:20;;;;;;;;;;;21.50;99.90;;;;;;5073274;28;19940;-75
2022/07/10 10:03:47;;;;;;;;;;;21.50;99.90;;;;;;5055859;28;19944;-75
2022/07/10 10:06:16;;;;;;;;;;;21.50;99.90;;;;;;5073243;28;19905;-75
2022/07/10 10:08:51;;;;;;;;;;;21.50;99.90;;;;;;5073599;28;19905;-75
2022/07/10 10:11:23;;;;;;;;;;;21.40;99.90;;;;;;5072786;28;19908;-76
2022/07/10 10:13:49;;;;;;;;;;;21.40;99.90;;;;;;5073560;28;19928;-75
2022/07/10 10:16:14;;;;;;;;;;;21.30;99.90;;;;;;5072772;28;19920;-75
2022/07/10 10:20:37;;;;;;;;;;;21.40;99.90;;;;;;5073037;28;19951;-76
2022/07/10 10:21:28;;;;;;;;;;;21.50;99.90;;;;;;5072878;28;19904;-75
2022/07/10 10:23:54;;;;;;;;;;;21.40;99.90;;;;;;5073455;28;19974;-75
2022/07/10 10:26:21;;;;;;;;;;;21.50;99.90;;;;;;5072715;28;19912;-75
2022/07/10 10:28:46;;;;;;;;;;;21.60;99.90;;;;;;5072924;28;19904;-75
2022/07/10 10:31:12;;;;;;;;;;;21.60;99.90;;;;;;5072492;28;19999;-76
2022/07/10 10:33:42;;;;;;;;;;;21.70;99.90;;;;;;5072889;28;20331;-75
2022/07/10 10:36:08;;;;;;;;;;;21.70;99.90;;;;;;5072193;28;19905;-76
2022/07/10 10:38:49;;;;;;;;;;;21.60;99.90;;;;;;5072732;28;19919;-76
2022/07/10 10:41:33;;;;;;;;;;;21.60;99.90;;;;;;5072292;28;19908;-75
2022/07/10 10:44:08;;;;;;;;;;;21.50;99.90;;;;;;5072527;28;19908;-75
2022/07/10 10:46:34;;;;;;;;;;;21.40;99.90;;;;;;5073146;28;19930;-76
2022/07/10 10:49:06;;;;;;;;;;;21.40;99.90;;;;;;5073012;28;19912;-76
2022/07/10 10:52:01;;;;;;;;;;;21.50;99.90;;;;;;5072617;28;19904;-76
2022/07/10 10:54:28;;;;;;;;;;;21.60;99.90;;;;;;5044578;28;19904;-76
2022/07/10 10:57:15;;;;;;;;;;;21.60;99.90;;;;;;5072479;28;20305;-76
2022/07/10 10:59:45;;;;;;;;;;;21.70;99.90;;;;;;5072926;28;19993;-75
2022/07/10 11:02:30;;;;;;;;;;;21.80;99.90;;;;;;5071902;28;20037;-75
2022/07/10 11:05:11;;;;;;;;;;;21.80;99.90;;;;;;5072767;28;20343;-75
2022/07/10 11:07:55;;;;;;;;;;;21.90;99.90;;;;;;5072753;28;19911;-75
2022/07/10 11:10:39;;;;;;;;;;;21.90;99.90;;;;;;5072163;28;20373;-75
2022/07/10 11:13:08;;;;;;;;;;;21.90;99.90;;;;;;5072484;28;19958;-75
2022/07/10 11:15:38;;;;;;;;;;;22.00;99.90;;;;;;5072555;28;19909;-75
2022/07/10 11:18:08;;;;;;;;;;;22.10;99.90;;;;;;5072381;28;19912;-76
2022/07/10 11:20:38;;;;;;;;;;;22.10;99.90;;;;;;5072510;28;19966;-76
2022/07/10 11:23:13;;;;;;;;;;;22.00;99.90;;;;;;5072623;28;19908;-76
2022/07/10 11:25:50;;;;;;;;;;;21.90;99.90;;;;;;5072598;28;20004;-75
2022/07/10 11:28:21;;;;;;;;;;;21.90;99.90;;;;;;5071888;28;19905;-76
2022/07/10 11:30:49;;;;;;;;;;;21.90;99.90;;;;;;5072558;28;19904;-77
2022/07/10 11:33:14;;;;;;;;;;;21.90;99.90;;;;;;5071973;28;19905;-76
2022/07/10 11:35:40;;;;;;;;;;;21.80;99.90;;;;;;5072511;28;20333;-76
2022/07/10 11:38:06;;;;;;;;;;;21.80;99.90;;;;;;5072045;28;19999;-76
2022/07/10 11:40:36;;;;;;;;;;;21.70;99.90;;;;;;5072085;28;20373;-76
2022/07/10 11:43:04;;;;;;;;;;;21.60;99.90;;;;;;5072359;28;20318;-76
2022/07/10 11:45:31;;;;;;;;;;;21.50;99.90;;;;;;5071663;28;20006;-75
2022/07/10 11:47:57;;;;;;;;;;;21.60;99.90;;;;;;5072152;28;19911;-76
2022/07/10 11:50:23;;;;;;;;;;;21.70;99.90;;;;;;5071819;28;19905;-75
2022/07/10 11:52:50;;;;;;;;;;;21.90;99.90;;;;;;5072340;28;19904;-76
2022/07/10 11:55:16;;;;;;;;;;;22.00;99.90;;;;;;5071733;28;19904;-75
2022/07/10 11:57:44;;;;;;;;;;;22.00;99.90;;;;;;5071930;28;20046;-75
2022/07/10 12:00:23;;;;;;;;;;;22.00;99.90;;;;;;5071566;28;19909;-75
2022/07/10 12:02:49;;;;;;;;;;;21.90;99.90;;;;;;5073744;28;19912;-76
2022/07/10 12:05:31;;;;;;;;;;;21.90;99.90;;;;;;5075481;28;20274;-75
2022/07/10 12:07:57;;;;;;;;;;;21.90;99.90;;;;;;5075710;28;19904;-76
2022/07/10 12:10:25;;;;;;;;;;;21.90;99.90;;;;;;5075248;28;19987;-76
2022/07/10 12:12:51;;;;;;;;;;;21.80;99.90;;;;;;5075816;28;19911;-75
2022/07/10 12:15:37;;;;;;;;;;;21.70;99.90;;;;;;5075328;28;19904;-75
2022/07/10 12:18:06;;;;;;;;;;;21.80;99.90;;;;;;5075638;28;19912;-76
2022/07/10 12:20:32;;;;;;;;;;;21.90;99.90;;;;;;5075170;28;19950;-75
2022/07/10 12:22:58;;;;;;;;;;;21.90;99.90;;;;;;5075750;28;20263;-75
2022/07/10 12:25:24;;;;;;;;;;;21.90;99.90;;;;;;5075073;28;19912;-75
2022/07/10 12:27:54;;;;;;;;;;;21.90;99.90;;;;;;5075519;28;19911;-75
2022/07/10 12:30:20;;;;;;;;;;;22.00;99.90;;;;;;5056955;28;20270;-75
2022/07/10 12:32:46;;;;;;;;;;;22.10;99.90;;;;;;5075353;28;19904;-76
2022/07/10 12:35:14;;;;;;;;;;;22.20;99.90;;;;;;5074772;28;20415;-75
2022/07/10 12:37:47;;;;;;;;;;;22.20;99.90;;;;;;5075218;28;19908;-76
2022/07/10 12:40:29;;;;;;;;;;;22.10;99.90;;;;;;5074744;28;19915;-75
2022/07/10 12:43:00;;;;;;;;;;;22.10;99.90;;;;;;5057383;28;19908;-75
2022/07/10 12:45:26;;;;;;;;;;;22.10;99.90;;;;;;5074179;28;20383;-75
2022/07/10 12:47:53;;;;;;;;;;;22.10;99.90;;;;;;5074898;28;19921;-76
2022/07/10 12:50:19;;;;;;;;;;;22.10;99.90;;;;;;5074264;28;19905;-76
2022/07/10 12:52:46;;;;;;;;;;;22.10;99.90;;;;;;5075166;28;19904;-77
2022/07/10 12:55:13;;;;;;;;;;;22.10;99.90;;;;;;5074493;28;19904;-76
2022/07/10 12:57:50;;;;;;;;;;;22.20;99.90;;;;;;5074711;28;19912;-76
2022/07/10 13:00:18;;;;;;;;;;;22.30;99.90;;;;;;5074500;28;19905;-76
2022/07/10 13:02:44;;;;;;;;;;;22.40;99.90;;;;;;5074947;28;20015;-76
2022/07/10 13:05:10;;;;;;;;;;;22.30;99.90;;;;;;5074947;28;19943;-75
2022/07/10 13:07:36;;;;;;;;;;;22.20;99.90;;;;;;5074111;28;20338;-75
2022/07/10 13:10:05;;;;;;;;;;;22.20;99.90;;;;;;5074872;28;19974;-76
2022/07/10 13:12:32;;;;;;;;;;;22.30;99.90;;;;;;5073657;28;20336;-76
2022/07/10 13:14:57;;;;;;;;;;;22.30;99.90;;;;;;5056461;28;19974;-75
2022/07/10 13:17:23;;;;;;;;;;;22.30;99.90;;;;;;5073664;28;20374;-75
2022/07/10 13:19:49;;;;;;;;;;;22.40;99.90;;;;;;5074352;28;19927;-76
2022/07/10 13:22:15;;;;;;;;;;;22.30;99.90;;;;;;5074005;28;19998;-76
2022/07/10 13:24:40;;;;;;;;;;;22.20;99.90;;;;;;5073977;28;19991;-76
2022/07/10 13:27:06;;;;;;;;;;;22.10;99.90;;;;;;5074279;28;19963;-76
2022/07/10 13:29:32;;;;;;;;;;;22.20;99.90;;;;;;5073779;28;19904;-76
2022/07/10 13:31:57;;;;;;;;;;;22.20;99.90;;;;;;5073869;28;19904;-75
2022/07/10 13:34:23;;;;;;;;;;;22.20;99.90;;;;;;5073401;28;19939;-76
2022/07/10 13:36:50;;;;;;;;;;;22.20;99.90;;;;;;5074192;28;20340;-76
2022/07/10 13:39:16;;;;;;;;;;;22.20;99.90;;;;;;5073689;28;19911;-77
2022/07/10 13:41:41;;;;;;;;;;;22.20;99.90;;;;;;5074278;28;19904;-75
2022/07/10 13:44:07;;;;;;;;;;;22.10;99.90;;;;;;5074171;28;19904;-74
2022/07/10 13:46:33;;;;;;;;;;;22.10;99.90;;;;;;5073669;28;20367;-74
2022/07/10 13:48:59;;;;;;;;;;;22.10;99.90;;;;;;5072000;28;19912;-76
2022/07/10 13:51:25;;;;;;;;;;;22.20;99.90;;;;;;5072582;28;19958;-75
2022/07/10 13:53:50;;;;;;;;;;;22.20;99.90;;;;;;5073722;28;20397;-75
2022/07/10 13:56:16;;;;;;;;;;;22.30;99.90;;;;;;5073332;28;19905;-76
2022/07/10 13:58:42;;;;;;;;;;;22.40;99.90;;;;;;5073582;28;20396;-76
2022/07/10 14:01:08;;;;;;;;;;;22.40;99.90;;;;;;5073926;28;19908;-76
2022/07/10 14:03:33;;;;;;;;;;;22.40;99.90;;;;;;5073181;28;19997;-75
2022/07/10 14:05:59;;;;;;;;;;;22.30;99.90;;;;;;5073426;28;19916;-76
2022/07/10 14:08:25;;;;;;;;;;;22.40;99.90;;;;;;5072671;28;19904;-76
2022/07/10 14:10:51;;;;;;;;;;;22.60;99.90;;;;;;5073587;28;20383;-76
2022/07/10 14:13:17;;;;;;;;;;;22.60;99.90;;;;;;5073044;28;19973;-76
2022/07/10 14:15:45;;;;;;;;;;;22.40;99.90;;;;;;5073590;28;19936;-76
2022/07/10 14:18:11;;;;;;;;;;;22.40;99.90;;;;;;5055582;28;20461;-76
2022/07/10 14:23:21;;;;;;;;;;;22.40;99.90;;;;;;5073027;28;20270;-76
2022/07/10 14:25:46;;;;;;;;;;;22.50;99.90;;;;;;5072741;28;19904;-76
2022/07/10 14:28:13;;;;;;;;;;;22.30;99.90;;;;;;5055426;28;19946;-76